DLH4VR EDDF-EDDH
Flight info
| Callsign | DLH4VR |
|---|---|
| Flight time | 0h 45m |
| Altitude | 35000 |
| Route | MARUN2N/25C MARUN Y150 TOLGI DCT SAS/N0464F340 P605 NOLGO NOLGO3S |
| Aircraft | A346/H-SDE2E3FGHIJ3J4J5M1RWXY/LB1D1 |
Departure
| Time | 2026-05-06 22:10 |
|---|---|
| Airport | Frankfurt Main Airport (EDDF) |
Arrival
| Time | 2026-05-06 22:56 |
|---|---|
| Airport | Hamburg Helmut Schmidt Airport (EDDH) |
| Time | Latitude | Longitude | Altitude | Speed | Heading |
|---|---|---|---|---|---|
| 2026-05-06 21:35 | 50.04669 | 8.56048 | 369 ft | 0 kts | 340° |
| 2026-05-06 21:57 | 50.04666 | 8.56050 | 364 ft | 3 kts | 340° |
| 2026-05-06 21:58 | 50.04643 | 8.56063 | 369 ft | 4 kts | 340° |
| 2026-05-06 21:58 | 50.04623 | 8.56074 | 364 ft | 4 kts | 336° |
| 2026-05-06 21:58 | 50.04604 | 8.56093 | 365 ft | 4 kts | 308° |
| 2026-05-06 21:58 | 50.04596 | 8.56121 | 369 ft | 4 kts | 273° |
| 2026-05-06 21:59 | 50.04599 | 8.56151 | 370 ft | 1 kts | 251° |
| 2026-05-06 21:59 | 50.04591 | 8.56119 | 368 ft | 4 kts | 249° |
| 2026-05-06 21:59 | 50.04582 | 8.56079 | 366 ft | 4 kts | 249° |
| 2026-05-06 21:59 | 50.04580 | 8.56071 | 364 ft | 0 kts | 250° |
| 2026-05-06 22:02 | 50.04579 | 8.56067 | 364 ft | 3 kts | 250° |
| 2026-05-06 22:03 | 50.04563 | 8.56007 | 364 ft | 7 kts | 237° |
| 2026-05-06 22:03 | 50.04514 | 8.55953 | 364 ft | 10 kts | 201° |
| 2026-05-06 22:03 | 50.04438 | 8.55913 | 369 ft | 13 kts | 195° |
| 2026-05-06 22:03 | 50.04340 | 8.55929 | 368 ft | 16 kts | 154° |
| 2026-05-06 22:04 | 50.04261 | 8.55940 | 365 ft | 13 kts | 200° |
| 2026-05-06 22:04 | 50.04162 | 8.55932 | 361 ft | 17 kts | 161° |
| 2026-05-06 22:04 | 50.04081 | 8.56060 | 366 ft | 20 kts | 85° |
| 2026-05-06 22:04 | 50.04125 | 8.56277 | 367 ft | 22 kts | 70° |
| 2026-05-06 22:05 | 50.04180 | 8.56504 | 370 ft | 23 kts | 69° |
| 2026-05-06 22:05 | 50.04237 | 8.56741 | 370 ft | 24 kts | 69° |
| 2026-05-06 22:05 | 50.04297 | 8.56990 | 370 ft | 25 kts | 70° |
| 2026-05-06 22:05 | 50.04355 | 8.57238 | 373 ft | 26 kts | 69° |
| 2026-05-06 22:06 | 50.04422 | 8.57514 | 371 ft | 28 kts | 70° |
| 2026-05-06 22:06 | 50.04490 | 8.57800 | 374 ft | 29 kts | 69° |
| 2026-05-06 22:06 | 50.04562 | 8.58102 | 371 ft | 31 kts | 69° |
| 2026-05-06 22:06 | 50.04635 | 8.58406 | 378 ft | 21 kts | 71° |
| 2026-05-06 22:07 | 50.04630 | 8.58540 | 377 ft | 13 kts | 126° |
| 2026-05-06 22:07 | 50.04552 | 8.58621 | 381 ft | 14 kts | 163° |
| 2026-05-06 22:07 | 50.04482 | 8.58570 | 379 ft | 1 kts | 249° |
| 2026-05-06 22:09 | 50.04479 | 8.58559 | 379 ft | 8 kts | 249° |
| 2026-05-06 22:09 | 50.04398 | 8.58216 | 378 ft | 67 kts | 250° |
| 2026-05-06 22:10 | 50.04162 | 8.57220 | 377 ft | 128 kts | 249° |
| 2026-05-06 22:10 | 50.03777 | 8.55626 | 377 ft | 178 kts | 252° |
| 2026-05-06 22:10 | 50.03344 | 8.53728 | 875 ft | 188 kts | 250° |
| 2026-05-06 22:10 | 50.02884 | 8.51807 | 1638 ft | 188 kts | 249° |
| 2026-05-06 22:11 | 50.02186 | 8.50099 | 2403 ft | 190 kts | 218° |
| 2026-05-06 22:11 | 50.00925 | 8.49339 | 2892 ft | 206 kts | 186° |
| 2026-05-06 22:11 | 49.99446 | 8.49304 | 3355 ft | 222 kts | 182° |
| 2026-05-06 22:11 | 49.97840 | 8.49180 | 3706 ft | 240 kts | 185° |
| 2026-05-06 22:12 | 49.96095 | 8.48830 | 4079 ft | 258 kts | 198° |
| 2026-05-06 22:12 | 49.94491 | 8.47513 | 4667 ft | 265 kts | 220° |
| 2026-05-06 22:12 | 49.93136 | 8.45561 | 5468 ft | 267 kts | 225° |
| 2026-05-06 22:12 | 49.91814 | 8.43530 | 6284 ft | 269 kts | 226° |
| 2026-05-06 22:13 | 49.90486 | 8.41451 | 7090 ft | 271 kts | 231° |
| 2026-05-06 22:13 | 49.89602 | 8.38887 | 7850 ft | 273 kts | 257° |
| 2026-05-06 22:13 | 49.89486 | 8.35935 | 8675 ft | 275 kts | 272° |
| 2026-05-06 22:13 | 49.89569 | 8.32952 | 9484 ft | 279 kts | 272° |
| 2026-05-06 22:14 | 49.89659 | 8.29918 | 10258 ft | 284 kts | 272° |
| 2026-05-06 22:14 | 49.89808 | 8.26788 | 10773 ft | 300 kts | 281° |
| 2026-05-06 22:14 | 49.90616 | 8.23697 | 11153 ft | 319 kts | 302° |
| 2026-05-06 22:14 | 49.92148 | 8.21114 | 11681 ft | 332 kts | 322° |
| 2026-05-06 22:15 | 49.94202 | 8.19374 | 12323 ft | 345 kts | 340° |
| 2026-05-06 22:15 | 49.96620 | 8.18687 | 12735 ft | 365 kts | 359° |
| 2026-05-06 22:15 | 49.99179 | 8.19354 | 13143 ft | 383 kts | 19° |
| 2026-05-06 22:15 | 50.01644 | 8.21061 | 13916 ft | 389 kts | 25° |
| 2026-05-06 22:16 | 50.04101 | 8.22863 | 14800 ft | 391 kts | 25° |
| 2026-05-06 22:16 | 50.06578 | 8.24661 | 15604 ft | 395 kts | 25° |
| 2026-05-06 22:16 | 50.09090 | 8.26457 | 16375 ft | 400 kts | 24° |
| 2026-05-06 22:16 | 50.11632 | 8.28256 | 17132 ft | 404 kts | 24° |
| 2026-05-06 22:17 | 50.14216 | 8.30074 | 17885 ft | 408 kts | 24° |
| 2026-05-06 22:17 | 50.16807 | 8.31893 | 18606 ft | 412 kts | 24° |
| 2026-05-06 22:17 | 50.19421 | 8.33729 | 19294 ft | 416 kts | 24° |
| 2026-05-06 22:17 | 50.22082 | 8.35599 | 19941 ft | 421 kts | 24° |
| 2026-05-06 22:18 | 50.24731 | 8.37462 | 20562 ft | 426 kts | 24° |
| 2026-05-06 22:18 | 50.27493 | 8.39401 | 21165 ft | 431 kts | 24° |
| 2026-05-06 22:18 | 50.30251 | 8.41292 | 21781 ft | 435 kts | 27° |
| 2026-05-06 22:18 | 50.32804 | 8.43758 | 22357 ft | 439 kts | 34° |
| 2026-05-06 22:19 | 50.35310 | 8.46522 | 22948 ft | 444 kts | 36° |
| 2026-05-06 22:19 | 50.37824 | 8.49330 | 23498 ft | 448 kts | 36° |
| 2026-05-06 22:19 | 50.40394 | 8.52155 | 24043 ft | 453 kts | 35° |
| 2026-05-06 22:19 | 50.42994 | 8.54969 | 24567 ft | 457 kts | 35° |
| 2026-05-06 22:20 | 50.45640 | 8.57800 | 25129 ft | 461 kts | 35° |
| 2026-05-06 22:20 | 50.47397 | 8.59668 | 25481 ft | 463 kts | 34° |
| 2026-05-06 22:20 | 50.50080 | 8.62514 | 26004 ft | 467 kts | 34° |
| 2026-05-06 22:20 | 50.52779 | 8.65372 | 26515 ft | 470 kts | 34° |
| 2026-05-06 22:21 | 50.55493 | 8.68247 | 27038 ft | 473 kts | 34° |
| 2026-05-06 22:21 | 50.58244 | 8.71161 | 27531 ft | 476 kts | 34° |
| 2026-05-06 22:21 | 50.60991 | 8.74077 | 27998 ft | 479 kts | 34° |
| 2026-05-06 22:21 | 50.63778 | 8.76974 | 28593 ft | 479 kts | 31° |
| 2026-05-06 22:22 | 50.66760 | 8.79292 | 29273 ft | 477 kts | 24° |
| 2026-05-06 22:22 | 50.69825 | 8.81266 | 29977 ft | 474 kts | 22° |
| 2026-05-06 22:22 | 50.72894 | 8.83172 | 30606 ft | 472 kts | 22° |
| 2026-05-06 22:22 | 50.75934 | 8.85089 | 31190 ft | 472 kts | 22° |
| 2026-05-06 22:23 | 50.78982 | 8.87053 | 31727 ft | 472 kts | 22° |
| 2026-05-06 22:23 | 50.82014 | 8.89042 | 32244 ft | 472 kts | 23° |
| 2026-05-06 22:23 | 50.85037 | 8.91049 | 32752 ft | 472 kts | 23° |
| 2026-05-06 22:23 | 50.88062 | 8.93072 | 33249 ft | 471 kts | 23° |
| 2026-05-06 22:24 | 50.91049 | 8.95080 | 33695 ft | 473 kts | 23° |
| 2026-05-06 22:24 | 50.94081 | 8.97124 | 34065 ft | 475 kts | 23° |
| 2026-05-06 22:24 | 50.97133 | 8.99186 | 34428 ft | 477 kts | 23° |
| 2026-05-06 22:24 | 51.00193 | 9.01257 | 34773 ft | 479 kts | 23° |
| 2026-05-06 22:25 | 51.06361 | 9.05442 | 34850 ft | 482 kts | 23° |
| 2026-05-06 22:25 | 51.12540 | 9.09647 | 34852 ft | 483 kts | 23° |
| 2026-05-06 22:26 | 51.18714 | 9.13862 | 34852 ft | 482 kts | 23° |
| 2026-05-06 22:26 | 51.24855 | 9.18068 | 34853 ft | 483 kts | 23° |
| 2026-05-06 22:27 | 51.31019 | 9.22301 | 34853 ft | 482 kts | 23° |
| 2026-05-06 22:27 | 51.37192 | 9.26553 | 34852 ft | 483 kts | 23° |
| 2026-05-06 22:28 | 51.43379 | 9.30827 | 34853 ft | 483 kts | 23° |
| 2026-05-06 22:28 | 51.49550 | 9.35103 | 34854 ft | 483 kts | 23° |
| 2026-05-06 22:29 | 51.55677 | 9.39361 | 34854 ft | 483 kts | 23° |
| 2026-05-06 22:29 | 51.61835 | 9.43654 | 34853 ft | 483 kts | 23° |
| 2026-05-06 22:30 | 51.68005 | 9.47967 | 34718 ft | 484 kts | 23° |
| 2026-05-06 22:30 | 51.71078 | 9.50121 | 34471 ft | 482 kts | 23° |
| 2026-05-06 22:30 | 51.74130 | 9.52262 | 34219 ft | 479 kts | 23° |
| 2026-05-06 22:31 | 51.77190 | 9.54413 | 33968 ft | 476 kts | 23° |
| 2026-05-06 22:31 | 51.80217 | 9.56543 | 33715 ft | 474 kts | 23° |
| 2026-05-06 22:31 | 51.83244 | 9.58676 | 33465 ft | 474 kts | 23° |
| 2026-05-06 22:31 | 51.86265 | 9.60809 | 33214 ft | 474 kts | 23° |
| 2026-05-06 22:32 | 51.89298 | 9.62952 | 32961 ft | 475 kts | 23° |
| 2026-05-06 22:32 | 51.92335 | 9.65102 | 32703 ft | 476 kts | 23° |
| 2026-05-06 22:32 | 51.95374 | 9.67256 | 32459 ft | 477 kts | 23° |
| 2026-05-06 22:32 | 51.98418 | 9.69419 | 32218 ft | 478 kts | 23° |
| 2026-05-06 22:33 | 52.01478 | 9.71595 | 31960 ft | 479 kts | 23° |
| 2026-05-06 22:33 | 52.04531 | 9.73770 | 31692 ft | 480 kts | 23° |
| 2026-05-06 22:33 | 52.07596 | 9.75955 | 31342 ft | 481 kts | 23° |
| 2026-05-06 22:33 | 52.10673 | 9.78154 | 30851 ft | 482 kts | 24° |
| 2026-05-06 22:34 | 52.13700 | 9.80320 | 30242 ft | 483 kts | 24° |
| 2026-05-06 22:34 | 52.16780 | 9.82528 | 29563 ft | 484 kts | 24° |
| 2026-05-06 22:34 | 52.19863 | 9.84743 | 28870 ft | 486 kts | 24° |
| 2026-05-06 22:34 | 52.23000 | 9.86822 | 28197 ft | 487 kts | 19° |
| 2026-05-06 22:35 | 52.26242 | 9.88421 | 27551 ft | 485 kts | 13° |
| 2026-05-06 22:35 | 52.29540 | 9.89497 | 27059 ft | 480 kts | 8° |
| 2026-05-06 22:35 | 52.32834 | 9.90260 | 26707 ft | 477 kts | 6° |
| 2026-05-06 22:35 | 52.36105 | 9.90943 | 26313 ft | 473 kts | 6° |
| 2026-05-06 22:36 | 52.39356 | 9.91610 | 25924 ft | 470 kts | 6° |
| 2026-05-06 22:36 | 52.42590 | 9.92284 | 25521 ft | 467 kts | 6° |
| 2026-05-06 22:36 | 52.45800 | 9.92965 | 25098 ft | 463 kts | 6° |
| 2026-05-06 22:36 | 52.48982 | 9.93648 | 24685 ft | 460 kts | 6° |
| 2026-05-06 22:37 | 52.52152 | 9.94335 | 24267 ft | 456 kts | 6° |
| 2026-05-06 22:37 | 52.55275 | 9.95016 | 23854 ft | 453 kts | 6° |
| 2026-05-06 22:37 | 52.58384 | 9.95695 | 23436 ft | 449 kts | 6° |
| 2026-05-06 22:37 | 52.61496 | 9.96376 | 23005 ft | 446 kts | 6° |
| 2026-05-06 22:38 | 52.64560 | 9.97048 | 22571 ft | 443 kts | 6° |
| 2026-05-06 22:38 | 52.67604 | 9.97717 | 22134 ft | 439 kts | 6° |
| 2026-05-06 22:38 | 52.70625 | 9.98382 | 21685 ft | 436 kts | 6° |
| 2026-05-06 22:38 | 52.73584 | 9.99035 | 21252 ft | 432 kts | 6° |
| 2026-05-06 22:39 | 52.76568 | 9.99693 | 20805 ft | 429 kts | 6° |
| 2026-05-06 22:39 | 52.79533 | 10.00349 | 20367 ft | 425 kts | 6° |
| 2026-05-06 22:39 | 52.82455 | 10.00998 | 19932 ft | 422 kts | 6° |
| 2026-05-06 22:39 | 52.85362 | 10.01530 | 19443 ft | 417 kts | 0° |
| 2026-05-06 22:40 | 52.88213 | 10.00769 | 18540 ft | 418 kts | 337° |
| 2026-05-06 22:40 | 52.90671 | 9.98286 | 17892 ft | 413 kts | 320° |
| 2026-05-06 22:40 | 52.92887 | 9.95309 | 17446 ft | 407 kts | 319° |
| 2026-05-06 22:40 | 52.95090 | 9.92371 | 16828 ft | 405 kts | 320° |
| 2026-05-06 22:41 | 52.99530 | 9.86701 | 15718 ft | 399 kts | 322° |
| 2026-05-06 22:41 | 53.01756 | 9.83937 | 15026 ft | 396 kts | 322° |
| 2026-05-06 22:41 | 53.03927 | 9.81265 | 13895 ft | 391 kts | 322° |
| 2026-05-06 22:42 | 53.06093 | 9.78612 | 13038 ft | 379 kts | 323° |
| 2026-05-06 22:42 | 53.08190 | 9.76052 | 12479 ft | 360 kts | 323° |
| 2026-05-06 22:42 | 53.10145 | 9.73667 | 11946 ft | 344 kts | 323° |
| 2026-05-06 22:42 | 53.12032 | 9.71363 | 11449 ft | 329 kts | 323° |
| 2026-05-06 22:43 | 53.13838 | 9.69152 | 10973 ft | 315 kts | 323° |
| 2026-05-06 22:43 | 53.15571 | 9.67029 | 10483 ft | 303 kts | 323° |
| 2026-05-06 22:43 | 53.17256 | 9.64966 | 9870 ft | 296 kts | 323° |
| 2026-05-06 22:43 | 53.18880 | 9.62975 | 9405 ft | 285 kts | 323° |
| 2026-05-06 22:44 | 53.20461 | 9.61031 | 8878 ft | 277 kts | 324° |
| 2026-05-06 22:44 | 53.21982 | 9.59158 | 8527 ft | 265 kts | 324° |
| 2026-05-06 22:44 | 53.23430 | 9.57375 | 8235 ft | 252 kts | 324° |
| 2026-05-06 22:44 | 53.24821 | 9.55666 | 8025 ft | 245 kts | 324° |
| 2026-05-06 22:45 | 53.26182 | 9.53992 | 7738 ft | 240 kts | 324° |
| 2026-05-06 22:45 | 53.27493 | 9.52374 | 7476 ft | 227 kts | 324° |
| 2026-05-06 22:45 | 53.28725 | 9.50852 | 7229 ft | 214 kts | 324° |
| 2026-05-06 22:45 | 53.29871 | 9.49436 | 7033 ft | 200 kts | 324° |
| 2026-05-06 22:46 | 53.31001 | 9.48197 | 6778 ft | 188 kts | 342° |
| 2026-05-06 22:46 | 53.32265 | 9.48155 | 6551 ft | 183 kts | 14° |
| 2026-05-06 22:46 | 53.33466 | 9.48859 | 6338 ft | 182 kts | 22° |
| 2026-05-06 22:46 | 53.34635 | 9.49669 | 6108 ft | 181 kts | 23° |
| 2026-05-06 22:47 | 53.35796 | 9.50489 | 5887 ft | 180 kts | 24° |
| 2026-05-06 22:47 | 53.36954 | 9.51309 | 5660 ft | 180 kts | 24° |
| 2026-05-06 22:47 | 53.38090 | 9.52111 | 5435 ft | 179 kts | 24° |
| 2026-05-06 22:47 | 53.39234 | 9.52919 | 5211 ft | 178 kts | 24° |
| 2026-05-06 22:48 | 53.40370 | 9.53718 | 4985 ft | 177 kts | 24° |
| 2026-05-06 22:48 | 53.41364 | 9.54879 | 4767 ft | 175 kts | 45° |
| 2026-05-06 22:48 | 53.42176 | 9.56393 | 4562 ft | 174 kts | 49° |
| 2026-05-06 22:48 | 53.42963 | 9.57946 | 4450 ft | 174 kts | 50° |
| 2026-05-06 22:49 | 53.43739 | 9.59507 | 4323 ft | 174 kts | 51° |
| 2026-05-06 22:49 | 53.44510 | 9.61074 | 4199 ft | 173 kts | 51° |
| 2026-05-06 22:49 | 53.45275 | 9.62635 | 4073 ft | 173 kts | 51° |
| 2026-05-06 22:49 | 53.46038 | 9.64196 | 3948 ft | 172 kts | 51° |
| 2026-05-06 22:50 | 53.46798 | 9.65754 | 3822 ft | 172 kts | 51° |
| 2026-05-06 22:50 | 53.47552 | 9.67300 | 3701 ft | 172 kts | 51° |
| 2026-05-06 22:50 | 53.48306 | 9.68847 | 3566 ft | 171 kts | 51° |
| 2026-05-06 22:50 | 53.49062 | 9.70394 | 3449 ft | 170 kts | 51° |
| 2026-05-06 22:51 | 53.49813 | 9.71931 | 3322 ft | 170 kts | 51° |
| 2026-05-06 22:51 | 53.50565 | 9.73469 | 3197 ft | 170 kts | 51° |
| 2026-05-06 22:51 | 53.51316 | 9.75002 | 3100 ft | 169 kts | 51° |
| 2026-05-06 22:51 | 53.52067 | 9.76533 | 3001 ft | 169 kts | 51° |
| 2026-05-06 22:52 | 53.52815 | 9.78057 | 2850 ft | 169 kts | 51° |
| 2026-05-06 22:52 | 53.53562 | 9.79579 | 2620 ft | 166 kts | 51° |
| 2026-05-06 22:52 | 53.54283 | 9.81046 | 2387 ft | 158 kts | 50° |
| 2026-05-06 22:52 | 53.54960 | 9.82425 | 2155 ft | 149 kts | 50° |
| 2026-05-06 22:53 | 53.55619 | 9.83765 | 1984 ft | 148 kts | 50° |
| 2026-05-06 22:53 | 53.56274 | 9.85097 | 1794 ft | 148 kts | 50° |
| 2026-05-06 22:53 | 53.56937 | 9.86445 | 1614 ft | 148 kts | 50° |
| 2026-05-06 22:53 | 53.57597 | 9.87785 | 1420 ft | 148 kts | 50° |
| 2026-05-06 22:54 | 53.58257 | 9.89123 | 1222 ft | 148 kts | 48° |
| 2026-05-06 22:54 | 53.58924 | 9.90442 | 1021 ft | 149 kts | 49° |
| 2026-05-06 22:54 | 53.59599 | 9.91814 | 811 ft | 151 kts | 52° |
| 2026-05-06 22:54 | 53.60245 | 9.93207 | 628 ft | 150 kts | 49° |
| 2026-05-06 22:55 | 53.60929 | 9.94533 | 404 ft | 150 kts | 50° |
| 2026-05-06 22:55 | 53.61590 | 9.95884 | 212 ft | 148 kts | 51° |
| 2026-05-06 22:55 | 53.62225 | 9.97178 | 48 ft | 136 kts | 50° |
| 2026-05-06 22:55 | 53.62705 | 9.98152 | 49 ft | 92 kts | 50° |
| 2026-05-06 22:56 | 53.63036 | 9.98827 | 51 ft | 49 kts | 56° |
| 2026-05-06 22:56 | 53.63088 | 9.99169 | 50 ft | 19 kts | 94° |
| 2026-05-06 22:56 | 53.63081 | 9.99298 | 51 ft | 4 kts | 91° |
| 2026-05-06 22:56 | 53.63082 | 9.99323 | 54 ft | 0 kts | 84° |
| 2026-05-06 22:57 | 53.63082 | 9.99324 | 48 ft | 0 kts | 84° |
| 2026-05-06 22:57 | 53.63089 | 9.99368 | 50 ft | 10 kts | 67° |
| 2026-05-06 22:57 | 53.63157 | 9.99538 | 49 ft | 23 kts | 51° |
| 2026-05-06 22:58 | 53.63246 | 9.99714 | 50 ft | 18 kts | 41° |
| 2026-05-06 22:58 | 53.63325 | 9.99852 | 52 ft | 12 kts | 50° |
| 2026-05-06 22:58 | 53.63360 | 9.99924 | 54 ft | 0 kts | 50° |
| 2026-05-06 22:58 | 53.63368 | 9.99942 | 51 ft | 4 kts | 50° |
| 2026-05-06 22:59 | 53.63390 | 9.99986 | 49 ft | 8 kts | 50° |
| 2026-05-06 22:59 | 53.63430 | 10.00078 | 51 ft | 11 kts | 74° |
| 2026-05-06 22:59 | 53.63424 | 10.00147 | 51 ft | 7 kts | 121° |
| 2026-05-06 22:59 | 53.63378 | 10.00195 | 51 ft | 2 kts | 177° |
| 2026-05-06 23:00 | 53.63358 | 10.00196 | 55 ft | 5 kts | 177° |
| 2026-05-06 23:00 | 53.63313 | 10.00200 | 50 ft | 8 kts | 177° |
| 2026-05-06 23:00 | 53.63267 | 10.00205 | 49 ft | 2 kts | 175° |
| 2026-05-06 23:00 | 53.63243 | 10.00209 | 53 ft | 5 kts | 175° |
| 2026-05-06 23:01 | 53.63197 | 10.00219 | 57 ft | 6 kts | 154° |
| 2026-05-06 23:01 | 53.63189 | 10.00278 | 51 ft | 3 kts | 84° |
| 2026-05-06 23:01 | 53.63191 | 10.00317 | 57 ft | 3 kts | 85° |
| 2026-05-06 23:01 | 53.63193 | 10.00345 | 54 ft | 2 kts | 85° |
| 2026-05-06 23:02 | 53.63193 | 10.00359 | 51 ft | 0 kts | 86° |